createdAt,value
2022-07-29T00:02:01.696Z,18.70
2022-07-29T00:04:29.541Z,18.70
2022-07-29T00:06:58.673Z,18.60
2022-07-29T00:09:26.600Z,18.70
2022-07-29T00:11:55.550Z,18.70
2022-07-29T00:14:23.327Z,18.70
2022-07-29T00:16:51.109Z,18.60
2022-07-29T00:19:19.009Z,18.60
2022-07-29T00:21:46.748Z,18.60
2022-07-29T00:24:16.144Z,18.60
2022-07-29T00:26:44.180Z,18.60
2022-07-29T00:29:33.457Z,18.60
2022-07-29T00:31:59.697Z,18.50
2022-07-29T00:34:45.267Z,18.60
2022-07-29T00:37:13.149Z,18.60
2022-07-29T00:39:42.473Z,18.50
2022-07-29T00:42:10.918Z,18.60
2022-07-29T00:44:40.093Z,18.60
2022-07-29T00:47:08.649Z,18.50
2022-07-29T00:49:37.599Z,18.50
2022-07-29T00:52:06.526Z,18.40
2022-07-29T00:54:35.275Z,18.30
2022-07-29T00:57:09.058Z,18.40
2022-07-29T00:59:37.008Z,18.40
2022-07-29T01:02:05.267Z,18.40
2022-07-29T01:04:33.724Z,18.40
2022-07-29T01:07:03.416Z,18.30
2022-07-29T01:09:42.775Z,18.30
2022-07-29T01:12:17.210Z,18.30
2022-07-29T01:14:46.254Z,18.30
2022-07-29T01:17:19.818Z,18.20
2022-07-29T01:19:54.876Z,18.20
2022-07-29T01:22:44.552Z,18.20
2022-07-29T01:25:21.928Z,18.20
2022-07-29T01:28:10.168Z,18.10
2022-07-29T01:30:44.188Z,18.10
2022-07-29T01:33:38.879Z,18.10
2022-07-29T01:36:12.689Z,18.10
2022-07-29T01:38:43.252Z,18.10
2022-07-29T01:41:14.778Z,18.10
2022-07-29T01:43:46.467Z,18.00
2022-07-29T01:46:19.942Z,17.90
2022-07-29T01:48:50.862Z,17.90
2022-07-29T01:51:22.178Z,17.90
2022-07-29T01:53:56.263Z,17.90
2022-07-29T01:56:26.109Z,17.90
2022-07-29T01:58:55.232Z,17.80
2022-07-29T02:01:27.555Z,17.70
2022-07-29T02:03:56.241Z,17.80
2022-07-29T02:06:25.255Z,17.70
2022-07-29T02:08:54.816Z,17.70
2022-07-29T02:11:22.739Z,17.70
2022-07-29T02:13:52.448Z,17.70
2022-07-29T02:16:22.948Z,17.70
2022-07-29T02:18:55.639Z,17.70
2022-07-29T02:21:26.942Z,17.60
2022-07-29T02:23:56.505Z,17.60
2022-07-29T02:26:26.425Z,17.60
2022-07-29T02:28:57.004Z,17.70
2022-07-29T02:31:27.217Z,17.60
2022-07-29T02:33:57.902Z,17.60
2022-07-29T02:36:26.691Z,17.70
2022-07-29T02:38:58.787Z,17.60
2022-07-29T02:41:32.977Z,17.60
2022-07-29T02:44:11.125Z,17.60
2022-07-29T02:46:43.770Z,17.60
2022-07-29T02:49:20.286Z,17.70
2022-07-29T02:51:53.206Z,17.70
2022-07-29T02:54:28.037Z,17.70
2022-07-29T02:56:57.670Z,17.70
2022-07-29T02:59:28.347Z,17.70
2022-07-29T03:01:59.643Z,17.80
2022-07-29T03:04:30.636Z,17.70
2022-07-29T03:07:01.553Z,17.70
2022-07-29T03:09:30.587Z,17.70
2022-07-29T03:11:59.506Z,17.70
2022-07-29T03:14:28.309Z,17.70
2022-07-29T03:16:56.495Z,17.60
2022-07-29T03:19:24.431Z,17.60
2022-07-29T03:21:53.789Z,17.50
2022-07-29T03:24:32.449Z,17.60
2022-07-29T03:27:00.901Z,17.60
2022-07-29T03:29:33.575Z,17.60
2022-07-29T03:32:03.702Z,17.50
2022-07-29T03:34:35.235Z,17.50
2022-07-29T03:37:04.457Z,17.50
2022-07-29T03:39:37.133Z,17.50
2022-07-29T03:42:08.771Z,17.50
2022-07-29T03:44:37.674Z,17.50
2022-07-29T03:47:08.426Z,17.50
2022-07-29T03:49:39.616Z,17.50
2022-07-29T03:52:09.520Z,17.40
2022-07-29T03:54:37.423Z,17.40
2022-07-29T03:57:07.328Z,17.40
2022-07-29T03:59:35.793Z,17.40
2022-07-29T04:02:05.274Z,17.50
2022-07-29T04:04:35.133Z,17.50
2022-07-29T04:07:03.256Z,17.40
2022-07-29T04:09:32.848Z,17.40
2022-07-29T04:12:03.339Z,17.40
2022-07-29T04:14:32.737Z,17.30
2022-07-29T04:17:00.607Z,17.30
2022-07-29T04:19:28.446Z,17.40
2022-07-29T04:21:56.245Z,17.40
2022-07-29T04:24:23.984Z,17.40
2022-07-29T04:26:53.294Z,17.40
2022-07-29T04:29:21.500Z,17.40
2022-07-29T04:31:49.341Z,17.50
2022-07-29T04:34:17.388Z,17.60
2022-07-29T04:36:45.418Z,17.70
2022-07-29T04:39:13.289Z,17.70
2022-07-29T04:41:41.080Z,17.80
2022-07-29T04:44:12.139Z,17.80
2022-07-29T04:46:40.850Z,17.60
2022-07-29T04:49:08.838Z,17.50
2022-07-29T04:51:36.742Z,17.40
2022-07-29T04:54:04.646Z,17.50
2022-07-29T04:56:32.419Z,17.60
2022-07-29T04:59:00.163Z,17.60
2022-07-29T05:01:29.382Z,17.70
2022-07-29T05:04:00.329Z,17.60
2022-07-29T05:06:28.692Z,17.80
2022-07-29T05:08:56.408Z,17.70
2022-07-29T05:11:28.639Z,17.70
2022-07-29T05:13:58.199Z,17.80
2022-07-29T05:16:26.201Z,17.80
2022-07-29T05:18:55.322Z,17.80
2022-07-29T05:21:23.063Z,17.90
2022-07-29T05:23:51.291Z,18.10
2022-07-29T05:26:19.043Z,18.00
2022-07-29T05:28:46.759Z,18.00
2022-07-29T05:31:15.531Z,18.10
2022-07-29T05:33:43.886Z,18.10
2022-07-29T05:36:12.956Z,18.00
2022-07-29T05:38:40.688Z,18.10
2022-07-29T05:41:08.543Z,18.20
2022-07-29T05:43:36.258Z,18.10
2022-07-29T05:46:04.168Z,18.10
2022-07-29T05:48:32.119Z,18.20
2022-07-29T05:50:59.909Z,18.20
2022-07-29T05:53:29.065Z,18.20
2022-07-29T05:55:56.826Z,18.30
2022-07-29T05:58:24.839Z,18.30
2022-07-29T06:00:52.582Z,18.50
2022-07-29T06:03:20.740Z,18.60
2022-07-29T06:05:48.475Z,18.50
2022-07-29T06:08:16.187Z,18.40
2022-07-29T06:10:46.438Z,18.50
2022-07-29T06:13:16.794Z,18.50
2022-07-29T06:15:44.940Z,18.70
2022-07-29T06:18:14.397Z,18.70
2022-07-29T06:20:42.470Z,18.80
2022-07-29T06:23:10.930Z,18.80
2022-07-29T06:25:38.853Z,18.80
2022-07-29T06:28:08.017Z,18.80
2022-07-29T06:30:35.809Z,18.80
2022-07-29T06:33:04.027Z,18.80
2022-07-29T06:35:38.483Z,18.70
2022-07-29T06:38:09.588Z,18.70
2022-07-29T06:41:03.323Z,18.90
2022-07-29T06:43:36.635Z,18.80
2022-07-29T06:46:20.809Z,18.90
2022-07-29T06:48:49.576Z,19.10
2022-07-29T06:51:22.265Z,19.10
2022-07-29T06:53:59.957Z,19.30
2022-07-29T06:56:31.435Z,19.40
2022-07-29T06:59:01.517Z,19.30
2022-07-29T07:01:29.488Z,19.50
2022-07-29T07:03:57.433Z,19.50
2022-07-29T07:06:25.154Z,19.40
2022-07-29T07:08:52.893Z,19.40
2022-07-29T07:11:20.613Z,19.70
2022-07-29T07:13:48.361Z,19.80
2022-07-29T07:16:17.797Z,19.90
2022-07-29T07:18:46.232Z,20.10
2022-07-29T07:21:19.044Z,20.20
2022-07-29T07:23:47.393Z,20.20
2022-07-29T07:26:15.589Z,20.20
2022-07-29T07:28:43.320Z,20.20
2022-07-29T07:31:11.410Z,20.20
2022-07-29T07:33:40.618Z,20.20
2022-07-29T07:36:08.493Z,20.50
2022-07-29T07:38:36.487Z,20.60
2022-07-29T07:41:04.762Z,20.80
2022-07-29T07:43:32.499Z,20.90
2022-07-29T07:46:00.257Z,21.20
2022-07-29T07:48:28.049Z,21.30
2022-07-29T07:50:57.139Z,21.50
2022-07-29T07:53:24.895Z,21.50
2022-07-29T07:56:09.988Z,21.60
2022-07-29T07:58:39.430Z,21.60
2022-07-29T08:01:07.267Z,21.60
2022-07-29T08:03:35.195Z,21.80
2022-07-29T08:06:04.950Z,21.70
2022-07-29T08:08:32.782Z,21.70
2022-07-29T08:11:08.328Z,22.00
2022-07-29T08:13:37.802Z,22.10
2022-07-29T08:16:13.463Z,22.20
2022-07-29T08:18:42.893Z,22.20
2022-07-29T08:21:14.835Z,22.40
2022-07-29T08:23:52.770Z,22.40
2022-07-29T08:26:25.728Z,22.60
2022-07-29T08:28:53.497Z,22.80
2022-07-29T08:31:21.342Z,22.90
2022-07-29T08:33:49.111Z,23.00
2022-07-29T08:36:18.848Z,23.00
2022-07-29T08:38:49.356Z,23.10
2022-07-29T08:41:17.735Z,23.30
2022-07-29T08:43:45.711Z,23.60
2022-07-29T08:46:13.484Z,23.90
2022-07-29T08:48:42.797Z,24.10
2022-07-29T08:51:14.743Z,24.30
2022-07-29T08:53:44.565Z,24.30
2022-07-29T08:56:15.063Z,24.50
2022-07-29T08:58:43.556Z,24.60
2022-07-29T09:01:19.523Z,24.80
2022-07-29T09:03:48.464Z,25.00
2022-07-29T09:06:18.938Z,25.10
2022-07-29T09:08:48.244Z,25.20
2022-07-29T09:11:16.415Z,25.50
2022-07-29T09:13:44.353Z,25.70
2022-07-29T09:16:12.164Z,25.80
2022-07-29T09:18:41.524Z,25.90
2022-07-29T09:21:28.951Z,26.20
2022-07-29T09:24:07.614Z,26.20
2022-07-29T09:26:37.459Z,26.20
2022-07-29T09:29:12.879Z,26.10
2022-07-29T09:31:42.338Z,26.30
2022-07-29T09:34:10.656Z,26.30
2022-07-29T09:36:42.947Z,26.50
2022-07-29T09:39:12.438Z,26.80
2022-07-29T09:41:48.752Z,26.90
2022-07-29T09:44:17.116Z,26.90
2022-07-29T09:46:56.585Z,27.10
2022-07-29T09:49:24.705Z,27.20
2022-07-29T09:52:02.559Z,27.30
2022-07-29T09:54:37.496Z,27.50
2022-07-29T09:57:06.722Z,27.50
2022-07-29T09:59:34.825Z,27.50
2022-07-29T10:02:03.941Z,27.80
2022-07-29T10:04:41.982Z,27.80
2022-07-29T10:07:10.299Z,27.90
2022-07-29T10:09:39.494Z,27.90
2022-07-29T10:12:11.831Z,28.20
2022-07-29T10:14:40.575Z,28.50
2022-07-29T10:17:10.206Z,28.60
2022-07-29T10:19:39.185Z,28.60
2022-07-29T10:22:08.626Z,28.50
2022-07-29T10:24:38.235Z,28.70
2022-07-29T10:27:08.807Z,28.50
2022-07-29T10:29:37.304Z,28.60
2022-07-29T10:32:32.148Z,28.90
2022-07-29T10:35:17.165Z,28.90
2022-07-29T10:41:32.334Z,29.10
2022-07-29T10:44:19.541Z,29.00
2022-07-29T10:47:24.901Z,29.00
2022-07-29T10:50:01.528Z,29.00
2022-07-29T10:52:57.872Z,29.30
2022-07-29T10:55:37.642Z,29.20
2022-07-29T10:58:19.003Z,29.40
2022-07-29T11:00:49.866Z,29.50
2022-07-29T11:03:49.211Z,29.50
2022-07-29T11:09:34.990Z,29.60
2022-07-29T11:12:07.709Z,29.50
2022-07-29T11:15:00.070Z,29.50
2022-07-29T11:20:34.603Z,29.60
2022-07-29T11:23:21.816Z,29.50
2022-07-29T11:29:23.158Z,29.30
2022-07-29T11:31:55.317Z,29.20
2022-07-29T11:34:29.628Z,29.40
2022-07-29T11:37:27.895Z,29.40
2022-07-29T11:40:18.384Z,29.40
2022-07-29T11:42:52.145Z,29.40
2022-07-29T11:45:42.174Z,29.50
2022-07-29T11:48:29.894Z,29.30
2022-07-29T11:51:02.982Z,29.50
2022-07-29T11:53:32.692Z,29.60
2022-07-29T11:56:04.988Z,29.60
2022-07-29T11:58:34.006Z,29.60
2022-07-29T12:01:09.255Z,29.60
2022-07-29T12:03:38.383Z,29.70
2022-07-29T12:06:18.004Z,29.60
2022-07-29T12:07:01.385Z,29.50
2022-07-29T12:08:47.379Z,29.60
2022-07-29T12:11:21.172Z,29.60
2022-07-29T12:13:49.908Z,29.50
2022-07-29T12:16:26.114Z,29.50
2022-07-29T12:18:59.380Z,29.50
2022-07-29T12:21:31.233Z,29.50
2022-07-29T12:24:08.670Z,29.40
2022-07-29T12:26:38.285Z,29.30
2022-07-29T12:29:11.621Z,29.30
2022-07-29T12:31:45.454Z,29.20
2022-07-29T12:34:15.374Z,29.30
2022-07-29T12:36:51.962Z,29.20
2022-07-29T12:39:21.012Z,29.30
2022-07-29T12:41:49.554Z,29.20
2022-07-29T12:44:18.049Z,29.10
2022-07-29T12:46:47.876Z,29.00
2022-07-29T12:49:24.390Z,29.00
2022-07-29T12:51:54.879Z,29.00
2022-07-29T12:54:24.361Z,29.00
2022-07-29T12:57:01.658Z,29.00
2022-07-29T12:59:30.278Z,29.00
2022-07-29T13:02:01.023Z,28.90
2022-07-29T13:04:30.924Z,28.90
2022-07-29T13:07:07.131Z,28.80
2022-07-29T13:09:44.367Z,28.80
2022-07-29T13:12:14.631Z,28.70
2022-07-29T13:14:44.209Z,28.60
2022-07-29T13:17:13.399Z,28.70
2022-07-29T13:19:43.359Z,28.70
2022-07-29T13:22:14.087Z,28.70
2022-07-29T13:24:52.598Z,28.80
2022-07-29T13:27:21.409Z,28.70
2022-07-29T13:29:52.035Z,28.70
2022-07-29T13:32:19.860Z,28.70
2022-07-29T13:35:01.096Z,28.80
2022-07-29T13:37:35.921Z,28.80
2022-07-29T13:40:05.046Z,28.80
2022-07-29T13:42:34.218Z,28.70
2022-07-29T13:45:02.505Z,28.80
2022-07-29T13:47:32.606Z,28.80
2022-07-29T13:50:01.222Z,28.80
2022-07-29T13:52:29.310Z,28.80
2022-07-29T13:54:58.653Z,28.80
2022-07-29T13:57:26.530Z,28.80
2022-07-29T13:59:54.690Z,28.70
2022-07-29T14:02:25.458Z,28.60
2022-07-29T14:04:54.465Z,28.70
2022-07-29T14:07:22.503Z,28.70
2022-07-29T14:09:51.038Z,28.80
2022-07-29T14:12:20.466Z,28.80
2022-07-29T14:14:48.327Z,28.80
2022-07-29T14:17:16.242Z,28.80
2022-07-29T14:19:44.169Z,28.90
2022-07-29T14:22:11.904Z,28.90
2022-07-29T14:24:40.023Z,29.00
2022-07-29T14:27:09.007Z,29.00
2022-07-29T14:29:38.876Z,29.10
2022-07-29T14:32:09.952Z,29.20
2022-07-29T14:34:38.978Z,29.20
2022-07-29T14:37:07.553Z,29.20
2022-07-29T14:39:42.344Z,29.40
2022-07-29T14:42:12.546Z,29.40
2022-07-29T14:44:42.898Z,29.60
2022-07-29T14:47:12.333Z,29.60
2022-07-29T14:49:40.042Z,29.70
2022-07-29T14:52:07.833Z,29.80
2022-07-29T14:54:35.577Z,29.80
2022-07-29T14:57:03.317Z,29.90
2022-07-29T14:59:31.027Z,30.00
2022-07-29T15:02:00.453Z,29.70
2022-07-29T15:04:28.578Z,29.70
2022-07-29T15:06:56.447Z,29.70
2022-07-29T15:09:24.469Z,29.70
2022-07-29T15:11:52.229Z,29.50
2022-07-29T15:14:19.954Z,29.50
2022-07-29T15:16:48.296Z,29.40
2022-07-29T15:19:17.502Z,29.30
2022-07-29T15:21:48.797Z,29.30
2022-07-29T15:24:17.744Z,29.30
2022-07-29T15:26:45.855Z,29.40
2022-07-29T15:29:14.270Z,29.30
2022-07-29T15:31:42.082Z,29.40
2022-07-29T15:34:09.955Z,29.30
2022-07-29T15:36:54.578Z,29.40
2022-07-29T15:39:23.244Z,29.30
2022-07-29T15:41:52.042Z,29.50
2022-07-29T15:44:20.937Z,29.50
2022-07-29T15:47:04.452Z,29.60
2022-07-29T15:49:48.757Z,29.50
2022-07-29T15:52:25.659Z,29.60
2022-07-29T15:54:54.890Z,29.60
2022-07-29T15:57:22.852Z,29.50
2022-07-29T15:59:50.690Z,29.50
2022-07-29T16:02:18.615Z,29.40
2022-07-29T16:04:46.399Z,29.50
2022-07-29T16:07:14.721Z,29.50
2022-07-29T16:09:46.233Z,29.50
2022-07-29T16:12:18.738Z,29.40
2022-07-29T16:14:49.321Z,29.50
2022-07-29T16:17:17.357Z,29.50
2022-07-29T16:19:45.871Z,29.60
2022-07-29T16:22:14.883Z,29.60
2022-07-29T16:24:44.022Z,29.50
2022-07-29T16:27:11.840Z,29.60
2022-07-29T16:29:39.619Z,29.60
2022-07-29T16:32:08.034Z,29.60
2022-07-29T16:34:35.872Z,29.50
2022-07-29T16:37:03.975Z,29.60
2022-07-29T16:39:31.979Z,29.60
2022-07-29T16:42:03.982Z,29.50
2022-07-29T16:44:33.222Z,29.40
2022-07-29T16:47:02.566Z,29.40
2022-07-29T16:49:31.664Z,29.40
2022-07-29T16:51:59.391Z,29.40
2022-07-29T16:54:27.435Z,29.30
2022-07-29T16:56:55.662Z,29.30
2022-07-29T16:59:25.082Z,29.30
2022-07-29T17:01:52.969Z,29.20
2022-07-29T17:04:20.765Z,29.20
2022-07-29T17:06:50.744Z,29.10
2022-07-29T17:09:18.533Z,29.10
2022-07-29T17:11:54.078Z,29.20
2022-07-29T17:14:26.131Z,29.20
2022-07-29T17:17:01.226Z,29.00
2022-07-29T17:19:30.373Z,29.00
2022-07-29T17:22:06.412Z,29.00
2022-07-29T17:24:38.389Z,29.00
2022-07-29T17:27:06.888Z,29.10
2022-07-29T17:29:35.913Z,29.00
2022-07-29T17:32:07.833Z,29.00
2022-07-29T17:34:36.151Z,29.00
2022-07-29T17:37:04.122Z,28.90
2022-07-29T17:39:32.085Z,28.90
2022-07-29T17:42:00.082Z,28.90
2022-07-29T17:44:27.817Z,28.80
2022-07-29T17:46:55.828Z,28.70
2022-07-29T17:49:25.172Z,28.70
2022-07-29T17:51:55.459Z,28.70
2022-07-29T17:54:28.480Z,28.60
2022-07-29T17:56:56.659Z,28.70
2022-07-29T17:59:24.821Z,28.60
2022-07-29T18:01:53.190Z,28.70
2022-07-29T18:04:23.291Z,28.50
2022-07-29T18:06:52.449Z,28.40
2022-07-29T18:09:20.211Z,28.40
2022-07-29T18:11:48.829Z,28.40
2022-07-29T18:14:16.954Z,28.30
2022-07-29T18:16:45.009Z,28.20
2022-07-29T18:19:12.969Z,28.20
2022-07-29T18:21:45.826Z,28.20
2022-07-29T18:24:24.534Z,28.20
2022-07-29T18:26:52.263Z,28.00
2022-07-29T18:29:20.014Z,27.90
2022-07-29T18:31:47.854Z,27.90
2022-07-29T18:34:17.028Z,27.80
2022-07-29T18:36:45.692Z,27.70
2022-07-29T18:39:20.263Z,27.70
2022-07-29T18:41:51.544Z,27.60
2022-07-29T18:44:22.101Z,27.60
2022-07-29T18:46:51.040Z,27.50
2022-07-29T18:49:19.054Z,27.40
2022-07-29T18:51:46.906Z,27.30
2022-07-29T18:54:14.875Z,27.30
2022-07-29T18:56:42.657Z,27.20
2022-07-29T18:59:12.175Z,27.10
2022-07-29T19:01:39.967Z,27.00
2022-07-29T19:04:08.186Z,27.00
2022-07-29T19:06:36.068Z,26.90
2022-07-29T19:09:05.675Z,26.80
2022-07-29T19:11:33.803Z,26.60
2022-07-29T19:14:01.818Z,26.60
2022-07-29T19:16:31.021Z,26.60
2022-07-29T19:19:00.863Z,26.50
2022-07-29T19:21:29.027Z,26.50
2022-07-29T19:24:00.175Z,26.50
2022-07-29T19:26:36.447Z,26.50
2022-07-29T19:29:05.135Z,26.40
2022-07-29T19:31:34.531Z,26.40
2022-07-29T19:34:02.366Z,26.30
2022-07-29T19:36:31.338Z,26.10
2022-07-29T19:39:00.127Z,26.10
2022-07-29T19:41:28.320Z,26.00
2022-07-29T19:43:56.142Z,25.90
2022-07-29T19:46:25.389Z,25.90
2022-07-29T19:48:54.530Z,25.80
2022-07-29T19:51:26.472Z,25.80
2022-07-29T19:53:54.426Z,25.80
2022-07-29T19:56:22.152Z,25.80
2022-07-29T19:58:52.029Z,25.70
2022-07-29T20:01:20.813Z,25.60
2022-07-29T20:03:48.895Z,25.60
2022-07-29T20:06:18.052Z,25.60
2022-07-29T20:08:46.193Z,25.50
2022-07-29T20:11:14.200Z,25.40
2022-07-29T20:13:41.971Z,25.40
2022-07-29T20:16:09.838Z,25.40
2022-07-29T20:18:37.695Z,25.30
2022-07-29T20:21:07.478Z,25.30
2022-07-29T20:23:37.384Z,25.30
2022-07-29T20:26:09.347Z,25.20
2022-07-29T20:28:40.117Z,25.20
2022-07-29T20:31:10.685Z,25.10
2022-07-29T20:33:38.496Z,25.00
2022-07-29T20:36:09.809Z,25.00
2022-07-29T20:38:38.899Z,25.00
2022-07-29T20:41:06.661Z,25.00
2022-07-29T20:43:38.878Z,25.00
2022-07-29T20:46:07.269Z,24.90
2022-07-29T20:48:35.443Z,24.80
2022-07-29T20:51:03.946Z,24.80
2022-07-29T20:53:32.872Z,24.80
2022-07-29T20:56:02.668Z,24.80
2022-07-29T20:58:32.437Z,24.70
2022-07-29T21:01:01.092Z,24.70
2022-07-29T21:03:29.369Z,24.70
2022-07-29T21:05:57.356Z,24.70
2022-07-29T21:08:25.419Z,24.60
2022-07-29T21:10:53.953Z,24.60
2022-07-29T21:13:25.423Z,24.60
2022-07-29T21:15:57.729Z,24.50
2022-07-29T21:18:30.573Z,24.50
2022-07-29T21:21:01.291Z,24.40
2022-07-29T21:23:30.034Z,24.40
2022-07-29T21:25:58.688Z,24.30
2022-07-29T21:28:26.900Z,25.60
2022-07-29T21:30:54.840Z,24.40
2022-07-29T21:33:22.800Z,24.20
2022-07-29T21:38:39.214Z,24.20
2022-07-29T21:41:12.446Z,24.20
2022-07-29T21:43:44.292Z,24.20
2022-07-29T21:46:12.732Z,24.20
2022-07-29T21:48:44.649Z,24.20
2022-07-29T21:51:15.279Z,24.20
2022-07-29T21:53:43.686Z,24.20
2022-07-29T21:56:14.856Z,24.20
2022-07-29T21:58:50.033Z,24.20
2022-07-29T22:01:18.552Z,24.20
2022-07-29T22:03:46.946Z,24.10
2022-07-29T22:06:17.965Z,24.10
2022-07-29T22:08:48.252Z,24.10
2022-07-29T22:11:17.843Z,24.10
2022-07-29T22:13:50.358Z,24.00
2022-07-29T22:16:19.269Z,24.00
2022-07-29T22:18:48.571Z,24.00
2022-07-29T22:21:17.473Z,23.90
2022-07-29T22:23:46.684Z,24.00
2022-07-29T22:26:16.620Z,24.00
2022-07-29T22:28:45.264Z,23.90
2022-07-29T22:31:17.504Z,23.90
2022-07-29T22:33:46.163Z,23.90
2022-07-29T22:36:14.257Z,23.80
2022-07-29T22:38:42.746Z,23.80
2022-07-29T22:41:11.405Z,23.90
2022-07-29T22:43:44.048Z,23.80
2022-07-29T22:46:14.582Z,23.80
2022-07-29T22:48:43.171Z,23.70
2022-07-29T22:51:11.700Z,23.70
2022-07-29T22:53:41.304Z,23.70
2022-07-29T22:56:09.689Z,23.70
2022-07-29T22:58:38.200Z,23.60
2022-07-29T23:01:06.792Z,23.70
2022-07-29T23:03:36.740Z,23.60
2022-07-29T23:06:05.254Z,23.60
2022-07-29T23:08:34.296Z,23.60
2022-07-29T23:11:02.905Z,23.50
2022-07-29T23:13:33.062Z,23.60
2022-07-29T23:16:03.186Z,23.50
2022-07-29T23:18:31.494Z,23.50
2022-07-29T23:21:01.747Z,23.50
2022-07-29T23:23:33.912Z,23.50
2022-07-29T23:26:02.321Z,23.50
2022-07-29T23:28:33.339Z,23.70
2022-07-29T23:31:02.147Z,23.70
2022-07-29T23:33:30.171Z,23.60
2022-07-29T23:35:58.743Z,23.50
2022-07-29T23:38:29.051Z,23.50
2022-07-29T23:40:59.115Z,23.50
2022-07-29T23:43:27.817Z,23.50
2022-07-29T23:45:58.133Z,23.40
2022-07-29T23:48:27.091Z,23.50
2022-07-29T23:50:54.900Z,23.50
2022-07-29T23:53:22.661Z,23.50
2022-07-29T23:55:51.702Z,23.40
2022-07-29T23:58:19.495Z,23.10
